sensor_id;sensor_type;location;lat;lon;timestamp;temperature;humidity
2022;DHT22;1015;49.756;6.994;2023-03-01T00:00:54;-2.60;99.90
2022;DHT22;1015;49.756;6.994;2023-03-01T00:03:21;-2.70;99.90
2022;DHT22;1015;49.756;6.994;2023-03-01T00:05:48;-2.60;99.90
2022;DHT22;1015;49.756;6.994;2023-03-01T00:08:15;-2.60;99.90
2022;DHT22;1015;49.756;6.994;2023-03-01T00:10:42;-2.70;99.90
2022;DHT22;1015;49.756;6.994;2023-03-01T00:13:10;-2.70;99.90
2022;DHT22;1015;49.756;6.994;2023-03-01T00:15:38;-2.60;99.90
2022;DHT22;1015;49.756;6.994;2023-03-01T00:18:07;-2.60;99.90
2022;DHT22;1015;49.756;6.994;2023-03-01T00:20:34;-2.60;99.90
2022;DHT22;1015;49.756;6.994;2023-03-01T00:23:01;-2.70;99.90
2022;DHT22;1015;49.756;6.994;2023-03-01T00:25:28;-2.70;99.90
2022;DHT22;1015;49.756;6.994;2023-03-01T00:27:55;-2.80;99.90
2022;DHT22;1015;49.756;6.994;2023-03-01T00:30:23;-2.80;99.90
2022;DHT22;1015;49.756;6.994;2023-03-01T00:32:50;-2.90;99.90
2022;DHT22;1015;49.756;6.994;2023-03-01T00:35:17;-2.90;99.90
2022;DHT22;1015;49.756;6.994;2023-03-01T00:37:44;-2.90;99.90
2022;DHT22;1015;49.756;6.994;2023-03-01T00:40:12;-2.90;99.90
2022;DHT22;1015;49.756;6.994;2023-03-01T00:42:41;-2.90;99.90
2022;DHT22;1015;49.756;6.994;2023-03-01T00:45:09;-2.90;99.90
2022;DHT22;1015;49.756;6.994;2023-03-01T00:47:37;-2.90;99.90
2022;DHT22;1015;49.756;6.994;2023-03-01T00:50:05;-2.90;99.90
2022;DHT22;1015;49.756;6.994;2023-03-01T00:52:32;-3.00;99.90
2022;DHT22;1015;49.756;6.994;2023-03-01T00:54:59;-3.10;99.90
2022;DHT22;1015;49.756;6.994;2023-03-01T00:57:26;-3.10;99.90
2022;DHT22;1015;49.756;6.994;2023-03-01T00:59:53;-3.10;99.90
2022;DHT22;1015;49.756;6.994;2023-03-01T01:02:20;-3.20;99.90
2022;DHT22;1015;49.756;6.994;2023-03-01T01:04:48;-3.20;99.90
2022;DHT22;1015;49.756;6.994;2023-03-01T01:07:15;-3.20;99.90
2022;DHT22;1015;49.756;6.994;2023-03-01T01:09:42;-3.30;99.90
2022;DHT22;1015;49.756;6.994;2023-03-01T01:12:09;-3.20;99.90
2022;DHT22;1015;49.756;6.994;2023-03-01T01:14:36;-3.30;99.90
2022;DHT22;1015;49.756;6.994;2023-03-01T01:17:03;-3.20;99.90
2022;DHT22;1015;49.756;6.994;2023-03-01T01:19:30;-3.30;99.90
2022;DHT22;1015;49.756;6.994;2023-03-01T01:21:59;-3.30;99.90
2022;DHT22;1015;49.756;6.994;2023-03-01T01:24:26;-3.40;99.90
2022;DHT22;1015;49.756;6.994;2023-03-01T01:26:53;-3.50;99.90
2022;DHT22;1015;49.756;6.994;2023-03-01T01:29:20;-3.50;99.90
2022;DHT22;1015;49.756;6.994;2023-03-01T01:31:47;-3.50;99.90
2022;DHT22;1015;49.756;6.994;2023-03-01T01:34:16;-3.40;99.90
2022;DHT22;1015;49.756;6.994;2023-03-01T01:36:43;-3.50;99.90
2022;DHT22;1015;49.756;6.994;2023-03-01T01:39:12;-3.50;99.90
2022;DHT22;1015;49.756;6.994;2023-03-01T01:41:40;-3.40;99.90
2022;DHT22;1015;49.756;6.994;2023-03-01T01:44:14;-3.50;99.90
2022;DHT22;1015;49.756;6.994;2023-03-01T01:46:44;-3.60;99.90
2022;DHT22;1015;49.756;6.994;2023-03-01T01:49:19;-3.60;99.90
2022;DHT22;1015;49.756;6.994;2023-03-01T01:51:48;-3.50;99.90
2022;DHT22;1015;49.756;6.994;2023-03-01T01:54:21;-3.50;99.90
2022;DHT22;1015;49.756;6.994;2023-03-01T01:56:51;-3.60;99.90
2022;DHT22;1015;49.756;6.994;2023-03-01T01:59:19;-3.60;99.90
2022;DHT22;1015;49.756;6.994;2023-03-01T02:01:50;-3.30;99.90
2022;DHT22;1015;49.756;6.994;2023-03-01T02:04:17;-3.20;99.90
2022;DHT22;1015;49.756;6.994;2023-03-01T02:06:48;-3.30;99.90
2022;DHT22;1015;49.756;6.994;2023-03-01T02:09:20;-3.20;99.90
2022;DHT22;1015;49.756;6.994;2023-03-01T02:11:49;-3.20;99.90
2022;DHT22;1015;49.756;6.994;2023-03-01T02:14:17;-3.00;99.90
2022;DHT22;1015;49.756;6.994;2023-03-01T02:16:44;-3.00;99.90
2022;DHT22;1015;49.756;6.994;2023-03-01T02:19:20;-3.00;99.90
2022;DHT22;1015;49.756;6.994;2023-03-01T02:21:55;-3.00;99.90
2022;DHT22;1015;49.756;6.994;2023-03-01T02:24:32;-3.00;99.90
2022;DHT22;1015;49.756;6.994;2023-03-01T02:27:03;-3.00;99.90
2022;DHT22;1015;49.756;6.994;2023-03-01T02:29:31;-3.10;99.90
2022;DHT22;1015;49.756;6.994;2023-03-01T02:32:00;-3.10;99.90
2022;DHT22;1015;49.756;6.994;2023-03-01T02:34:29;-3.10;99.90
2022;DHT22;1015;49.756;6.994;2023-03-01T02:37:00;-3.10;99.90
2022;DHT22;1015;49.756;6.994;2023-03-01T02:39:34;-3.10;99.90
2022;DHT22;1015;49.756;6.994;2023-03-01T02:42:10;-3.10;99.90
2022;DHT22;1015;49.756;6.994;2023-03-01T02:44:39;-3.10;99.90
2022;DHT22;1015;49.756;6.994;2023-03-01T02:47:06;-3.00;99.90
2022;DHT22;1015;49.756;6.994;2023-03-01T02:49:34;-3.10;99.90
2022;DHT22;1015;49.756;6.994;2023-03-01T02:52:19;-3.20;99.90
2022;DHT22;1015;49.756;6.994;2023-03-01T02:54:52;-3.20;99.90
2022;DHT22;1015;49.756;6.994;2023-03-01T02:57:23;-3.30;99.90
2022;DHT22;1015;49.756;6.994;2023-03-01T02:59:54;-3.20;99.90
2022;DHT22;1015;49.756;6.994;2023-03-01T03:02:24;-3.30;99.90
2022;DHT22;1015;49.756;6.994;2023-03-01T03:05:06;-3.30;99.90
2022;DHT22;1015;49.756;6.994;2023-03-01T03:07:34;-3.30;99.90
2022;DHT22;1015;49.756;6.994;2023-03-01T03:10:03;-3.40;99.90
2022;DHT22;1015;49.756;6.994;2023-03-01T03:12:30;-3.40;99.90
2022;DHT22;1015;49.756;6.994;2023-03-01T03:14:58;-3.40;99.90
2022;DHT22;1015;49.756;6.994;2023-03-01T03:17:25;-3.50;99.90
2022;DHT22;1015;49.756;6.994;2023-03-01T03:19:52;-3.50;99.90
2022;DHT22;1015;49.756;6.994;2023-03-01T03:22:18;-3.30;99.90
2022;DHT22;1015;49.756;6.994;2023-03-01T03:24:45;-3.30;99.90
2022;DHT22;1015;49.756;6.994;2023-03-01T03:27:12;-3.40;99.90
2022;DHT22;1015;49.756;6.994;2023-03-01T03:29:39;-3.40;99.90
2022;DHT22;1015;49.756;6.994;2023-03-01T03:32:07;-3.40;99.90
2022;DHT22;1015;49.756;6.994;2023-03-01T03:34:34;-3.40;99.90
2022;DHT22;1015;49.756;6.994;2023-03-01T03:37:01;-3.40;99.90
2022;DHT22;1015;49.756;6.994;2023-03-01T03:39:28;-3.40;99.90
2022;DHT22;1015;49.756;6.994;2023-03-01T03:42:00;-3.40;99.90
2022;DHT22;1015;49.756;6.994;2023-03-01T03:44:28;-3.30;99.90
2022;DHT22;1015;49.756;6.994;2023-03-01T03:46:54;-3.40;99.90
2022;DHT22;1015;49.756;6.994;2023-03-01T03:49:23;-3.40;99.90
2022;DHT22;1015;49.756;6.994;2023-03-01T03:51:50;-3.40;99.90
2022;DHT22;1015;49.756;6.994;2023-03-01T03:54:17;-3.30;99.90
2022;DHT22;1015;49.756;6.994;2023-03-01T03:56:43;-3.40;99.90
2022;DHT22;1015;49.756;6.994;2023-03-01T03:59:10;-3.40;99.90
2022;DHT22;1015;49.756;6.994;2023-03-01T04:01:37;-3.40;99.90
2022;DHT22;1015;49.756;6.994;2023-03-01T04:04:04;-3.40;99.90
2022;DHT22;1015;49.756;6.994;2023-03-01T04:06:34;-3.30;99.90
2022;DHT22;1015;49.756;6.994;2023-03-01T04:09:01;-3.40;99.90
2022;DHT22;1015;49.756;6.994;2023-03-01T04:11:28;-3.40;99.90
2022;DHT22;1015;49.756;6.994;2023-03-01T04:13:57;-3.40;99.90
2022;DHT22;1015;49.756;6.994;2023-03-01T04:16:25;-3.40;99.90
2022;DHT22;1015;49.756;6.994;2023-03-01T04:18:52;-3.40;99.90
2022;DHT22;1015;49.756;6.994;2023-03-01T04:21:20;-3.40;99.90
2022;DHT22;1015;49.756;6.994;2023-03-01T04:23:48;-3.40;99.90
2022;DHT22;1015;49.756;6.994;2023-03-01T04:26:18;-3.50;99.90
2022;DHT22;1015;49.756;6.994;2023-03-01T04:28:45;-3.40;99.90
2022;DHT22;1015;49.756;6.994;2023-03-01T04:31:16;-3.50;99.90
2022;DHT22;1015;49.756;6.994;2023-03-01T04:33:45;-3.50;99.90
2022;DHT22;1015;49.756;6.994;2023-03-01T04:36:14;-3.60;99.90
2022;DHT22;1015;49.756;6.994;2023-03-01T04:38:42;-3.60;99.90
2022;DHT22;1015;49.756;6.994;2023-03-01T04:41:15;-3.60;99.90
2022;DHT22;1015;49.756;6.994;2023-03-01T04:43:43;-3.50;99.90
2022;DHT22;1015;49.756;6.994;2023-03-01T04:46:12;-3.50;99.90
2022;DHT22;1015;49.756;6.994;2023-03-01T04:48:41;-3.60;99.90
2022;DHT22;1015;49.756;6.994;2023-03-01T04:51:08;-3.60;99.90
2022;DHT22;1015;49.756;6.994;2023-03-01T04:53:39;-3.60;99.90
2022;DHT22;1015;49.756;6.994;2023-03-01T04:56:06;-3.50;99.90
2022;DHT22;1015;49.756;6.994;2023-03-01T04:58:35;-3.60;99.90
2022;DHT22;1015;49.756;6.994;2023-03-01T05:01:08;-3.60;99.90
2022;DHT22;1015;49.756;6.994;2023-03-01T05:03:40;-3.60;99.90
2022;DHT22;1015;49.756;6.994;2023-03-01T05:06:07;-3.60;99.90
2022;DHT22;1015;49.756;6.994;2023-03-01T05:08:34;-3.60;99.90
2022;DHT22;1015;49.756;6.994;2023-03-01T05:11:03;-3.60;99.90
2022;DHT22;1015;49.756;6.994;2023-03-01T05:13:31;-3.70;99.90
2022;DHT22;1015;49.756;6.994;2023-03-01T05:16:01;-3.60;99.90
2022;DHT22;1015;49.756;6.994;2023-03-01T05:18:31;-3.70;99.90
2022;DHT22;1015;49.756;6.994;2023-03-01T05:21:03;-3.60;99.90
2022;DHT22;1015;49.756;6.994;2023-03-01T05:23:31;-3.60;99.90
2022;DHT22;1015;49.756;6.994;2023-03-01T05:25:58;-3.60;99.90
2022;DHT22;1015;49.756;6.994;2023-03-01T05:28:26;-3.60;99.90
2022;DHT22;1015;49.756;6.994;2023-03-01T05:30:53;-3.60;99.90
2022;DHT22;1015;49.756;6.994;2023-03-01T05:33:22;-3.70;99.90
2022;DHT22;1015;49.756;6.994;2023-03-01T05:35:50;-3.70;99.90
2022;DHT22;1015;49.756;6.994;2023-03-01T05:38:17;-3.70;99.90
2022;DHT22;1015;49.756;6.994;2023-03-01T05:40:46;-3.70;99.90
2022;DHT22;1015;49.756;6.994;2023-03-01T05:43:15;-3.70;99.90
2022;DHT22;1015;49.756;6.994;2023-03-01T05:45:42;-3.80;99.90
2022;DHT22;1015;49.756;6.994;2023-03-01T05:48:10;-3.80;99.90
2022;DHT22;1015;49.756;6.994;2023-03-01T05:50:40;-3.80;99.90
2022;DHT22;1015;49.756;6.994;2023-03-01T05:53:09;-3.80;99.90
2022;DHT22;1015;49.756;6.994;2023-03-01T05:55:38;-3.80;99.90
2022;DHT22;1015;49.756;6.994;2023-03-01T05:58:06;-3.80;99.90
2022;DHT22;1015;49.756;6.994;2023-03-01T06:00:34;-3.80;99.90
2022;DHT22;1015;49.756;6.994;2023-03-01T06:03:01;-3.70;99.90
2022;DHT22;1015;49.756;6.994;2023-03-01T06:05:29;-3.70;99.90
2022;DHT22;1015;49.756;6.994;2023-03-01T06:08:00;-3.80;99.90
2022;DHT22;1015;49.756;6.994;2023-03-01T06:10:28;-3.80;99.90
2022;DHT22;1015;49.756;6.994;2023-03-01T06:12:55;-3.90;99.90
2022;DHT22;1015;49.756;6.994;2023-03-01T06:15:23;-3.90;99.90
2022;DHT22;1015;49.756;6.994;2023-03-01T06:17:51;-3.90;99.90
2022;DHT22;1015;49.756;6.994;2023-03-01T06:20:21;-3.90;99.90
2022;DHT22;1015;49.756;6.994;2023-03-01T06:22:49;-3.90;99.90
2022;DHT22;1015;49.756;6.994;2023-03-01T06:25:24;-3.80;99.90
2022;DHT22;1015;49.756;6.994;2023-03-01T06:27:52;-3.80;99.90
2022;DHT22;1015;49.756;6.994;2023-03-01T06:30:20;-3.70;99.90
2022;DHT22;1015;49.756;6.994;2023-03-01T06:32:47;-3.70;99.90
2022;DHT22;1015;49.756;6.994;2023-03-01T06:35:16;-3.60;99.90
2022;DHT22;1015;49.756;6.994;2023-03-01T06:37:44;-3.60;99.90
2022;DHT22;1015;49.756;6.994;2023-03-01T06:40:12;-3.50;99.90
2022;DHT22;1015;49.756;6.994;2023-03-01T06:42:42;-3.50;99.90
2022;DHT22;1015;49.756;6.994;2023-03-01T06:45:10;-3.40;99.90
2022;DHT22;1015;49.756;6.994;2023-03-01T06:47:37;-3.40;99.90
2022;DHT22;1015;49.756;6.994;2023-03-01T06:50:05;-3.30;99.90
2022;DHT22;1015;49.756;6.994;2023-03-01T06:52:32;-3.10;99.90
2022;DHT22;1015;49.756;6.994;2023-03-01T06:54:59;-3.10;99.90
2022;DHT22;1015;49.756;6.994;2023-03-01T06:57:26;-3.00;99.90
2022;DHT22;1015;49.756;6.994;2023-03-01T06:59:54;-2.90;99.90
2022;DHT22;1015;49.756;6.994;2023-03-01T07:02:21;-3.00;99.90
2022;DHT22;1015;49.756;6.994;2023-03-01T07:04:49;-2.90;99.90
2022;DHT22;1015;49.756;6.994;2023-03-01T07:07:16;-2.90;99.90
2022;DHT22;1015;49.756;6.994;2023-03-01T07:09:43;-3.00;99.90
2022;DHT22;1015;49.756;6.994;2023-03-01T07:12:10;-3.00;99.90
2022;DHT22;1015;49.756;6.994;2023-03-01T07:14:37;-3.00;99.90
2022;DHT22;1015;49.756;6.994;2023-03-01T07:17:05;-2.90;99.90
2022;DHT22;1015;49.756;6.994;2023-03-01T07:19:33;-2.90;99.90
2022;DHT22;1015;49.756;6.994;2023-03-01T07:21:59;-2.90;99.90
2022;DHT22;1015;49.756;6.994;2023-03-01T07:24:26;-2.90;99.90
2022;DHT22;1015;49.756;6.994;2023-03-01T07:26:53;-2.90;99.90
2022;DHT22;1015;49.756;6.994;2023-03-01T07:29:20;-2.80;99.90
2022;DHT22;1015;49.756;6.994;2023-03-01T07:31:47;-2.80;99.90
2022;DHT22;1015;49.756;6.994;2023-03-01T07:34:15;-2.80;99.90
2022;DHT22;1015;49.756;6.994;2023-03-01T07:36:42;-2.70;99.90
2022;DHT22;1015;49.756;6.994;2023-03-01T07:39:11;-2.60;99.90
2022;DHT22;1015;49.756;6.994;2023-03-01T07:41:38;-2.50;99.90
2022;DHT22;1015;49.756;6.994;2023-03-01T07:44:05;-2.40;99.90
2022;DHT22;1015;49.756;6.994;2023-03-01T07:46:33;-2.40;99.90
2022;DHT22;1015;49.756;6.994;2023-03-01T07:48:59;-2.40;99.90
2022;DHT22;1015;49.756;6.994;2023-03-01T07:51:28;-2.20;99.90
2022;DHT22;1015;49.756;6.994;2023-03-01T07:53:55;-2.20;99.90
2022;DHT22;1015;49.756;6.994;2023-03-01T07:56:22;-2.10;99.90
2022;DHT22;1015;49.756;6.994;2023-03-01T07:58:50;-2.00;99.90
2022;DHT22;1015;49.756;6.994;2023-03-01T08:01:20;-2.00;99.90
2022;DHT22;1015;49.756;6.994;2023-03-01T08:03:47;-2.00;99.90
2022;DHT22;1015;49.756;6.994;2023-03-01T08:06:16;-2.10;99.90
2022;DHT22;1015;49.756;6.994;2023-03-01T08:08:44;-2.00;99.90
2022;DHT22;1015;49.756;6.994;2023-03-01T08:11:13;-2.00;99.90
2022;DHT22;1015;49.756;6.994;2023-03-01T08:13:40;-1.90;99.90
2022;DHT22;1015;49.756;6.994;2023-03-01T08:16:09;-1.80;99.90
2022;DHT22;1015;49.756;6.994;2023-03-01T08:18:37;-1.70;99.90
2022;DHT22;1015;49.756;6.994;2023-03-01T08:21:05;-1.60;99.90
2022;DHT22;1015;49.756;6.994;2023-03-01T08:23:32;-1.50;99.90
2022;DHT22;1015;49.756;6.994;2023-03-01T08:26:09;-1.50;99.90
2022;DHT22;1015;49.756;6.994;2023-03-01T08:28:36;-1.40;99.90
2022;DHT22;1015;49.756;6.994;2023-03-01T08:31:03;-1.30;99.90
2022;DHT22;1015;49.756;6.994;2023-03-01T08:33:30;-1.20;99.90
2022;DHT22;1015;49.756;6.994;2023-03-01T08:36:04;-1.10;99.90
2022;DHT22;1015;49.756;6.994;2023-03-01T08:38:32;-1.00;99.90
2022;DHT22;1015;49.756;6.994;2023-03-01T08:41:00;-0.90;99.90
2022;DHT22;1015;49.756;6.994;2023-03-01T08:43:29;-0.90;99.90
2022;DHT22;1015;49.756;6.994;2023-03-01T08:45:56;-0.80;99.90
2022;DHT22;1015;49.756;6.994;2023-03-01T08:48:23;-0.60;99.90
2022;DHT22;1015;49.756;6.994;2023-03-01T08:50:50;-0.50;99.90
2022;DHT22;1015;49.756;6.994;2023-03-01T08:53:17;-0.50;99.90
2022;DHT22;1015;49.756;6.994;2023-03-01T08:55:43;-0.50;99.90
2022;DHT22;1015;49.756;6.994;2023-03-01T08:58:10;-0.30;99.90
2022;DHT22;1015;49.756;6.994;2023-03-01T09:00:39;-0.20;99.90
2022;DHT22;1015;49.756;6.994;2023-03-01T09:03:06;-0.10;99.90
2022;DHT22;1015;49.756;6.994;2023-03-01T09:05:33;-0.10;99.90
2022;DHT22;1015;49.756;6.994;2023-03-01T09:08:02;-0.10;99.90
2022;DHT22;1015;49.756;6.994;2023-03-01T09:10:29;0.00;99.90
2022;DHT22;1015;49.756;6.994;2023-03-01T09:12:56;0.30;99.90
2022;DHT22;1015;49.756;6.994;2023-03-01T09:15:23;0.60;99.90
2022;DHT22;1015;49.756;6.994;2023-03-01T09:17:52;0.50;99.90
2022;DHT22;1015;49.756;6.994;2023-03-01T09:20:19;0.60;99.90
2022;DHT22;1015;49.756;6.994;2023-03-01T09:22:46;0.80;99.90
2022;DHT22;1015;49.756;6.994;2023-03-01T09:25:12;1.20;99.90
2022;DHT22;1015;49.756;6.994;2023-03-01T09:27:40;1.40;99.90
2022;DHT22;1015;49.756;6.994;2023-03-01T09:30:08;1.60;99.90
2022;DHT22;1015;49.756;6.994;2023-03-01T09:32:35;2.00;99.90
2022;DHT22;1015;49.756;6.994;2023-03-01T09:35:05;1.70;99.90
2022;DHT22;1015;49.756;6.994;2023-03-01T09:37:33;1.60;99.90
2022;DHT22;1015;49.756;6.994;2023-03-01T09:40:01;1.60;99.90
2022;DHT22;1015;49.756;6.994;2023-03-01T09:42:29;1.80;99.90
2022;DHT22;1015;49.756;6.994;2023-03-01T09:45:00;2.00;99.90
2022;DHT22;1015;49.756;6.994;2023-03-01T09:47:30;1.90;99.90
2022;DHT22;1015;49.756;6.994;2023-03-01T09:50:06;1.60;99.90
2022;DHT22;1015;49.756;6.994;2023-03-01T09:52:39;1.70;99.90
2022;DHT22;1015;49.756;6.994;2023-03-01T09:55:11;2.00;99.90
2022;DHT22;1015;49.756;6.994;2023-03-01T09:57:43;1.90;99.90
2022;DHT22;1015;49.756;6.994;2023-03-01T10:00:22;2.10;99.90
2022;DHT22;1015;49.756;6.994;2023-03-01T10:02:57;2.40;99.90
2022;DHT22;1015;49.756;6.994;2023-03-01T10:05:35;2.50;99.90
2022;DHT22;1015;49.756;6.994;2023-03-01T10:08:26;2.50;99.90
2022;DHT22;1015;49.756;6.994;2023-03-01T10:10:56;2.50;99.90
2022;DHT22;1015;49.756;6.994;2023-03-01T10:13:26;2.40;99.90
2022;DHT22;1015;49.756;6.994;2023-03-01T10:15:56;2.30;99.90
2022;DHT22;1015;49.756;6.994;2023-03-01T10:18:26;2.20;99.90
2022;DHT22;1015;49.756;6.994;2023-03-01T10:20:58;2.50;99.90
2022;DHT22;1015;49.756;6.994;2023-03-01T10:23:27;2.50;99.90
2022;DHT22;1015;49.756;6.994;2023-03-01T10:26:05;2.80;99.90
2022;DHT22;1015;49.756;6.994;2023-03-01T10:28:43;2.80;99.90
2022;DHT22;1015;49.756;6.994;2023-03-01T10:31:14;2.80;99.90
2022;DHT22;1015;49.756;6.994;2023-03-01T10:33:41;2.80;99.90
2022;DHT22;1015;49.756;6.994;2023-03-01T10:36:10;2.70;99.90
2022;DHT22;1015;49.756;6.994;2023-03-01T10:38:50;2.60;99.90
2022;DHT22;1015;49.756;6.994;2023-03-01T10:41:19;2.70;99.90
2022;DHT22;1015;49.756;6.994;2023-03-01T10:43:50;2.70;99.90
2022;DHT22;1015;49.756;6.994;2023-03-01T10:46:27;2.60;99.90
2022;DHT22;1015;49.756;6.994;2023-03-01T10:49:14;2.70;99.90
2022;DHT22;1015;49.756;6.994;2023-03-01T10:51:44;2.80;99.90
2022;DHT22;1015;49.756;6.994;2023-03-01T10:54:17;2.90;99.90
2022;DHT22;1015;49.756;6.994;2023-03-01T10:56:49;2.90;99.90
2022;DHT22;1015;49.756;6.994;2023-03-01T10:59:25;3.10;99.90
2022;DHT22;1015;49.756;6.994;2023-03-01T11:02:09;3.20;99.90
2022;DHT22;1015;49.756;6.994;2023-03-01T11:04:38;3.30;99.90
2022;DHT22;1015;49.756;6.994;2023-03-01T11:07:07;3.40;99.90
2022;DHT22;1015;49.756;6.994;2023-03-01T11:09:34;3.30;99.90
2022;DHT22;1015;49.756;6.994;2023-03-01T11:12:11;3.40;99.90
2022;DHT22;1015;49.756;6.994;2023-03-01T11:14:46;3.50;99.90
2022;DHT22;1015;49.756;6.994;2023-03-01T11:17:18;3.60;99.90
2022;DHT22;1015;49.756;6.994;2023-03-01T11:20:00;3.70;99.90
2022;DHT22;1015;49.756;6.994;2023-03-01T11:22:31;3.70;99.90
2022;DHT22;1015;49.756;6.994;2023-03-01T11:24:59;4.10;99.90
2022;DHT22;1015;49.756;6.994;2023-03-01T11:27:30;3.80;99.90
2022;DHT22;1015;49.756;6.994;2023-03-01T11:30:00;3.80;99.90
2022;DHT22;1015;49.756;6.994;2023-03-01T11:32:36;3.80;99.90
2022;DHT22;1015;49.756;6.994;2023-03-01T11:35:10;3.90;99.90
2022;DHT22;1015;49.756;6.994;2023-03-01T11:37:56;3.80;99.90
2022;DHT22;1015;49.756;6.994;2023-03-01T11:40:29;3.90;99.90
2022;DHT22;1015;49.756;6.994;2023-03-01T11:43:09;4.10;99.90
2022;DHT22;1015;49.756;6.994;2023-03-01T11:45:46;3.80;99.90
2022;DHT22;1015;49.756;6.994;2023-03-01T11:48:36;4.10;99.90
2022;DHT22;1015;49.756;6.994;2023-03-01T11:51:09;4.00;99.90
2022;DHT22;1015;49.756;6.994;2023-03-01T11:53:56;4.00;99.90
2022;DHT22;1015;49.756;6.994;2023-03-01T11:56:32;4.00;99.90
2022;DHT22;1015;49.756;6.994;2023-03-01T11:59:32;4.00;99.90
2022;DHT22;1015;49.756;6.994;2023-03-01T12:05:24;4.10;99.90
2022;DHT22;1015;49.756;6.994;2023-03-01T12:08:00;4.30;99.90
2022;DHT22;1015;49.756;6.994;2023-03-01T12:10:33;4.30;99.90
2022;DHT22;1015;49.756;6.994;2023-03-01T12:13:25;4.20;99.90
2022;DHT22;1015;49.756;6.994;2023-03-01T12:16:15;4.50;99.90
2022;DHT22;1015;49.756;6.994;2023-03-01T12:19:01;4.50;99.90
2022;DHT22;1015;49.756;6.994;2023-03-01T12:21:49;4.60;99.90
2022;DHT22;1015;49.756;6.994;2023-03-01T12:24:50;4.60;99.90
2022;DHT22;1015;49.756;6.994;2023-03-01T12:27:35;4.60;99.90
2022;DHT22;1015;49.756;6.994;2023-03-01T12:30:21;4.60;99.90
2022;DHT22;1015;49.756;6.994;2023-03-01T12:33:02;4.60;99.90
2022;DHT22;1015;49.756;6.994;2023-03-01T12:35:43;4.70;99.90
2022;DHT22;1015;49.756;6.994;2023-03-01T12:38:25;4.70;99.90
2022;DHT22;1015;49.756;6.994;2023-03-01T12:41:21;4.60;99.90
2022;DHT22;1015;49.756;6.994;2023-03-01T12:44:01;4.70;99.90
2022;DHT22;1015;49.756;6.994;2023-03-01T12:46:41;4.60;99.90
2022;DHT22;1015;49.756;6.994;2023-03-01T12:49:14;4.70;99.90
2022;DHT22;1015;49.756;6.994;2023-03-01T12:51:46;4.70;99.90
2022;DHT22;1015;49.756;6.994;2023-03-01T12:54:22;4.60;99.90
2022;DHT22;1015;49.756;6.994;2023-03-01T12:56:50;4.60;99.90
2022;DHT22;1015;49.756;6.994;2023-03-01T12:59:22;4.50;99.90
2022;DHT22;1015;49.756;6.994;2023-03-01T13:01:55;4.70;99.90
2022;DHT22;1015;49.756;6.994;2023-03-01T13:04:35;4.90;99.90
2022;DHT22;1015;49.756;6.994;2023-03-01T13:07:15;4.80;99.90
2022;DHT22;1015;49.756;6.994;2023-03-01T13:09:49;4.80;99.90
2022;DHT22;1015;49.756;6.994;2023-03-01T13:12:42;4.70;99.90
2022;DHT22;1015;49.756;6.994;2023-03-01T13:18:32;4.80;99.90
2022;DHT22;1015;49.756;6.994;2023-03-01T13:21:01;4.80;99.90
2022;DHT22;1015;49.756;6.994;2023-03-01T13:23:33;4.70;99.90
2022;DHT22;1015;49.756;6.994;2023-03-01T13:26:10;4.90;99.90
2022;DHT22;1015;49.756;6.994;2023-03-01T13:32:00;4.60;99.90
2022;DHT22;1015;49.756;6.994;2023-03-01T13:34:48;4.70;99.90
2022;DHT22;1015;49.756;6.994;2023-03-01T13:43:29;4.80;99.90
2022;DHT22;1015;49.756;6.994;2023-03-01T13:45:57;4.80;99.90
2022;DHT22;1015;49.756;6.994;2023-03-01T13:48:27;4.70;99.90
2022;DHT22;1015;49.756;6.994;2023-03-01T13:50:59;4.70;99.90
2022;DHT22;1015;49.756;6.994;2023-03-01T13:53:29;4.60;99.90
2022;DHT22;1015;49.756;6.994;2023-03-01T13:56:00;4.70;99.90
2022;DHT22;1015;49.756;6.994;2023-03-01T13:58:29;4.80;99.90
2022;DHT22;1015;49.756;6.994;2023-03-01T14:00:59;4.90;99.90
2022;DHT22;1015;49.756;6.994;2023-03-01T14:03:27;4.80;99.90
2022;DHT22;1015;49.756;6.994;2023-03-01T14:06:03;4.80;99.90
2022;DHT22;1015;49.756;6.994;2023-03-01T14:08:33;4.70;99.90
2022;DHT22;1015;49.756;6.994;2023-03-01T14:11:28;4.70;99.90
2022;DHT22;1015;49.756;6.994;2023-03-01T14:14:08;4.50;99.90
2022;DHT22;1015;49.756;6.994;2023-03-01T14:16:45;4.70;99.90
2022;DHT22;1015;49.756;6.994;2023-03-01T14:19:17;4.70;99.90
2022;DHT22;1015;49.756;6.994;2023-03-01T14:21:47;4.70;99.90
2022;DHT22;1015;49.756;6.994;2023-03-01T14:24:18;4.80;99.90
2022;DHT22;1015;49.756;6.994;2023-03-01T14:26:46;4.80;99.90
2022;DHT22;1015;49.756;6.994;2023-03-01T14:29:27;4.80;99.90
2022;DHT22;1015;49.756;6.994;2023-03-01T14:32:09;4.70;99.90
2022;DHT22;1015;49.756;6.994;2023-03-01T14:34:43;4.70;99.90
2022;DHT22;1015;49.756;6.994;2023-03-01T14:37:19;4.80;99.90
2022;DHT22;1015;49.756;6.994;2023-03-01T14:39:46;5.00;99.90
2022;DHT22;1015;49.756;6.994;2023-03-01T14:42:14;5.00;99.90
2022;DHT22;1015;49.756;6.994;2023-03-01T14:44:42;4.90;99.90
2022;DHT22;1015;49.756;6.994;2023-03-01T14:47:12;4.80;99.90
2022;DHT22;1015;49.756;6.994;2023-03-01T14:49:41;4.80;99.90
2022;DHT22;1015;49.756;6.994;2023-03-01T14:52:20;4.70;99.90
2022;DHT22;1015;49.756;6.994;2023-03-01T14:54:48;4.70;99.90
2022;DHT22;1015;49.756;6.994;2023-03-01T14:57:18;4.60;99.90
2022;DHT22;1015;49.756;6.994;2023-03-01T14:59:47;4.60;99.90
2022;DHT22;1015;49.756;6.994;2023-03-01T15:02:18;4.60;99.90
2022;DHT22;1015;49.756;6.994;2023-03-01T15:04:48;4.50;99.90
2022;DHT22;1015;49.756;6.994;2023-03-01T15:07:16;4.50;99.90
2022;DHT22;1015;49.756;6.994;2023-03-01T15:09:44;4.60;99.90
2022;DHT22;1015;49.756;6.994;2023-03-01T15:12:32;4.60;99.90
2022;DHT22;1015;49.756;6.994;2023-03-01T15:15:00;4.60;99.90
2022;DHT22;1015;49.756;6.994;2023-03-01T15:17:31;4.60;99.90
2022;DHT22;1015;49.756;6.994;2023-03-01T15:20:00;4.50;99.90
2022;DHT22;1015;49.756;6.994;2023-03-01T15:22:29;4.50;99.90
2022;DHT22;1015;49.756;6.994;2023-03-01T15:24:58;4.50;99.90
2022;DHT22;1015;49.756;6.994;2023-03-01T15:27:26;4.60;99.90
2022;DHT22;1015;49.756;6.994;2023-03-01T15:29:55;4.60;99.90
2022;DHT22;1015;49.756;6.994;2023-03-01T15:32:28;4.50;99.90
2022;DHT22;1015;49.756;6.994;2023-03-01T15:34:56;4.50;99.90
2022;DHT22;1015;49.756;6.994;2023-03-01T15:37:44;4.40;99.90
2022;DHT22;1015;49.756;6.994;2023-03-01T15:40:21;4.30;99.90
2022;DHT22;1015;49.756;6.994;2023-03-01T15:42:50;4.30;99.90
2022;DHT22;1015;49.756;6.994;2023-03-01T15:45:23;4.30;99.90
2022;DHT22;1015;49.756;6.994;2023-03-01T15:47:54;4.20;99.90
2022;DHT22;1015;49.756;6.994;2023-03-01T15:50:26;4.20;99.90
2022;DHT22;1015;49.756;6.994;2023-03-01T15:52:54;4.20;99.90
2022;DHT22;1015;49.756;6.994;2023-03-01T15:55:24;4.20;99.90
2022;DHT22;1015;49.756;6.994;2023-03-01T15:57:59;4.10;99.90
2022;DHT22;1015;49.756;6.994;2023-03-01T16:00:27;4.10;99.90
2022;DHT22;1015;49.756;6.994;2023-03-01T16:02:54;4.10;99.90
2022;DHT22;1015;49.756;6.994;2023-03-01T16:05:24;4.10;99.90
2022;DHT22;1015;49.756;6.994;2023-03-01T16:07:52;4.10;99.90
2022;DHT22;1015;49.756;6.994;2023-03-01T16:10:20;4.10;99.90
2022;DHT22;1015;49.756;6.994;2023-03-01T16:12:49;4.00;99.90
2022;DHT22;1015;49.756;6.994;2023-03-01T16:15:20;4.00;99.90
2022;DHT22;1015;49.756;6.994;2023-03-01T16:17:48;3.90;99.90
2022;DHT22;1015;49.756;6.994;2023-03-01T16:20:15;3.80;99.90
2022;DHT22;1015;49.756;6.994;2023-03-01T16:22:42;3.90;99.90
2022;DHT22;1015;49.756;6.994;2023-03-01T16:25:10;3.80;99.90
2022;DHT22;1015;49.756;6.994;2023-03-01T16:27:38;3.80;99.90
2022;DHT22;1015;49.756;6.994;2023-03-01T16:30:08;3.70;99.90
2022;DHT22;1015;49.756;6.994;2023-03-01T16:32:37;3.60;99.90
2022;DHT22;1015;49.756;6.994;2023-03-01T16:35:05;3.60;99.90
2022;DHT22;1015;49.756;6.994;2023-03-01T16:37:34;3.50;99.90
2022;DHT22;1015;49.756;6.994;2023-03-01T16:40:01;3.50;99.90
2022;DHT22;1015;49.756;6.994;2023-03-01T16:42:33;3.50;99.90
2022;DHT22;1015;49.756;6.994;2023-03-01T16:45:00;3.40;99.90
2022;DHT22;1015;49.756;6.994;2023-03-01T16:47:28;3.40;99.90